Time;durP1;ratioP1;P1;durP2;ratioP2;P2;SDS_P1;SDS_P2;PMS_P1;PMS_P2;Temp;Humidity;BMP_temperature;BMP_pressure;BME280_temperature;BME280_humidity;BME280_pressure;Samples;Min_cycle;Max_cycle;Signal;HPM_P1;HPM_P2
2021/12/25 00:02:01;;;;;;;12.97;11.57;;;;;;;4.90;100.00;100358.06;5281907;28;20043;-70
2021/12/25 00:04:32;;;;;;;13.10;11.60;;;;;;;4.95;100.00;100352.91;5283769;28;20082;-69
2021/12/25 00:07:04;;;;;;;15.00;11.30;;;;;;;4.90;100.00;100356.31;5284108;28;20426;-69
2021/12/25 00:09:35;;;;;;;16.27;12.67;;;;;;;4.87;100.00;100348.56;5284472;28;20036;-70
2021/12/25 00:12:07;;;;;;;13.40;11.87;;;;;;;4.88;100.00;100352.03;5283145;28;20032;-71
2021/12/25 00:14:38;;;;;;;13.87;11.40;;;;;;;4.85;100.00;100352.00;5288126;28;20611;-71
2021/12/25 00:17:10;;;;;;;17.17;14.00;;;;;;;4.84;100.00;100355.44;5285055;28;20103;-70
2021/12/25 00:19:43;;;;;;;14.43;11.87;;;;;;;4.90;100.00;100358.06;5285794;28;20025;-70
2021/12/25 00:22:15;;;;;;;15.40;13.75;;;;;;;4.82;100.00;100352.00;5293459;28;20029;-69
2021/12/25 00:24:47;;;;;;;13.68;12.25;;;;;;;4.78;100.00;100348.53;5285968;28;20047;-69
2021/12/25 00:27:49;;;;;;;17.58;15.77;;;;;;;4.81;100.00;100343.38;5285275;28;20020;-69
2021/12/25 00:30:24;;;;;;;23.58;21.05;;;;;;;4.82;100.00;100337.34;5294400;28;20055;-71
2021/12/25 00:32:59;;;;;;;21.17;18.85;;;;;;;4.80;100.00;100333.03;5287782;28;20025;-70
2021/12/25 00:35:31;;;;;;;14.32;12.75;;;;;;;4.74;100.00;100334.75;5298649;28;20029;-69
2021/12/25 00:38:02;;;;;;;15.77;14.07;;;;;;;4.79;100.00;100331.31;5294812;28;20024;-70
2021/12/25 00:40:33;;;;;;;15.13;11.93;;;;;;;4.74;100.00;100344.22;5290748;28;20036;-69
2021/12/25 00:43:05;;;;;;;13.07;11.67;;;;;;;4.82;100.00;100344.25;5296462;28;20083;-71
2021/12/25 00:45:36;;;;;;;13.90;12.23;;;;;;;4.78;100.00;100352.84;5291652;28;20050;-69
2021/12/25 00:48:07;;;;;;;16.30;12.87;;;;;;;4.76;100.00;100345.06;5293253;28;20507;-69
2021/12/25 00:50:39;;;;;;;16.87;13.10;;;;;;;4.73;100.00;100348.53;5299819;28;20038;-71
2021/12/25 00:53:10;;;;;;;16.13;13.60;;;;;;;4.73;100.00;100353.69;5289727;28;20096;-71
2021/12/25 00:55:41;;;;;;;16.03;13.70;;;;;;;4.74;100.00;100355.41;5299644;28;20029;-70
2021/12/25 00:58:13;;;;;;;17.77;14.27;;;;;;;4.67;100.00;100350.19;5264803;28;20467;-70
2021/12/25 01:00:45;;;;;;;18.60;14.93;;;;;;;4.68;100.00;100346.78;5268291;28;20172;-71
2021/12/25 01:03:16;;;;;;;17.50;14.80;;;;;;;4.71;100.00;100347.63;5255827;28;20028;-71
2021/12/25 01:05:48;;;;;;;19.97;14.73;;;;;;;4.65;100.00;100352.78;5254549;28;20409;-70
2021/12/25 01:08:20;;;;;;;19.43;13.87;;;;;;;4.66;100.00;100353.66;5255505;28;20028;-71
2021/12/25 01:10:51;;;;;;;17.97;14.13;;;;;;;4.66;100.00;100344.19;5271079;28;20122;-71
2021/12/25 01:13:27;;;;;;;19.30;15.70;;;;;;;4.67;100.00;100356.25;5276329;28;20028;-71
2021/12/25 01:19:13;;;;;;;19.98;15.82;;;;;;;4.70;100.00;100345.94;5272330;28;20106;-70
2021/12/25 01:22:05;;;;;;;16.80;14.65;;;;;;;4.64;100.00;100335.56;5273052;28;20040;-70
2021/12/25 01:29:55;;;;;;;20.43;15.50;;;;;;;4.62;100.00;100332.13;5272821;28;20044;-70
2021/12/25 01:38:06;;;;;;;20.13;17.77;;;;;;;4.53;100.00;100342.41;5272800;28;20387;-71
2021/12/25 01:40:53;;;;;;;23.25;19.50;;;;;;;4.55;100.00;100341.53;5272424;28;20543;-70
2021/12/25 01:49:04;;;;;;;27.42;22.15;;;;;;;4.49;100.00;100341.53;5272349;28;20575;-70
2021/12/25 01:51:36;;;;;;;24.07;20.87;;;;;;;4.45;100.00;100339.78;5273132;28;20025;-72
2021/12/25 01:54:07;;;;;;;27.83;23.30;;;;;;;4.47;100.00;100340.63;5272972;28;20047;-71
2021/12/25 01:56:39;;;;;;;29.33;22.90;;;;;;;4.48;100.00;100337.22;5258804;28;20071;-71
2021/12/25 01:59:11;;;;;;;28.95;23.85;;;;;;;4.52;100.00;100333.81;5255077;28;20040;-69
2021/12/25 02:01:42;;;;;;;32.00;24.80;;;;;;;4.47;100.00;100337.22;5267146;28;20036;-69
2021/12/25 02:04:14;;;;;;;28.70;23.83;;;;;;;4.47;100.00;100338.06;5275208;28;20029;-71
2021/12/25 02:06:45;;;;;;;28.33;22.83;;;;;;;4.48;100.00;100336.38;5275151;28;20036;-72
2021/12/25 02:09:17;;;;;;;30.03;25.00;;;;;;;4.45;100.00;100337.19;5274968;28;20028;-72
2021/12/25 02:11:48;;;;;;;33.00;25.30;;;;;;;4.45;100.00;100329.47;5275565;28;20105;-70
2021/12/25 02:14:20;;;;;;;30.30;25.73;;;;;;;4.45;100.00;100337.19;5276371;28;20601;-74
2021/12/25 02:16:57;;;;;;;29.73;25.20;;;;;;;4.45;100.00;100336.34;5276151;28;20032;-70
2021/12/25 02:19:41;;;;;;;33.35;26.60;;;;;;;4.41;100.00;100340.59;5275177;28;20033;-72
2021/12/25 02:22:13;;;;;;;31.35;25.38;;;;;;;4.37;100.00;100342.31;5274927;28;20039;-71
2021/12/25 02:24:45;;;;;;;32.30;26.93;;;;;;;4.42;100.00;100333.75;5274969;28;20032;-72
2021/12/25 02:27:17;;;;;;;35.55;27.35;;;;;;;4.33;100.00;100330.28;5274925;28;20932;-72
2021/12/25 02:29:48;;;;;;;32.33;27.60;;;;;;;4.35;100.00;100331.13;5274706;28;20042;-70
2021/12/25 02:32:19;;;;;;;33.33;27.80;;;;;;;4.32;100.00;100332.84;5274832;28;20116;-76
2021/12/25 02:34:51;;;;;;;31.77;26.50;;;;;;;4.33;100.00;100330.28;5263784;28;20036;-69
2021/12/25 02:37:22;;;;;;;31.70;25.97;;;;;;;4.28;100.00;100329.38;5270759;28;20078;-73
2021/12/25 02:39:53;;;;;;;34.07;25.80;;;;;;;4.27;100.00;100337.97;5254234;28;20036;-70
2021/12/25 02:42:25;;;;;;;29.13;25.00;;;;;;;4.23;100.00;100338.78;5270904;28;20025;-69
2021/12/25 02:44:56;;;;;;;29.57;24.23;;;;;;;4.22;100.00;100333.63;5273151;28;20573;-70
2021/12/25 02:47:30;;;;;;;29.20;24.33;;;;;;;4.22;100.00;100338.78;5268900;28;20486;-71
2021/12/25 02:50:02;;;;;;;29.23;24.77;;;;;;;4.19;100.00;100337.06;5255046;28;20907;-72
2021/12/25 02:52:33;;;;;;;30.87;23.67;;;;;;;4.21;100.00;100343.09;5254420;28;20044;-70
2021/12/25 02:55:08;;;;;;;30.20;23.80;;;;;;;4.18;100.00;100336.19;5257954;28;20028;-71
2021/12/25 02:57:39;;;;;;;28.50;22.98;;;;;;;4.15;100.00;100338.78;5257459;28;20029;-71
2021/12/25 03:00:11;;;;;;;29.33;23.10;;;;;;;4.17;100.00;100337.06;5258099;28;20025;-70
2021/12/25 03:02:43;;;;;;;29.40;24.27;;;;;;;4.15;100.00;100343.94;5257950;28;20033;-71
2021/12/25 03:05:15;;;;;;;24.27;20.70;;;;;;;4.07;100.00;100339.56;5265959;28;20048;-71
2021/12/25 03:07:47;;;;;;;22.38;18.80;;;;;;;4.03;100.00;100343.84;5263110;28;20037;-69
2021/12/25 03:10:19;;;;;;;21.13;18.10;;;;;;;3.95;100.00;100346.34;5268825;28;20051;-71
2021/12/25 03:13:05;;;;;;;23.52;18.63;;;;;;;3.87;100.00;100350.59;5262103;28;20052;-71
2021/12/25 03:15:46;;;;;;;21.33;17.55;;;;;;;3.82;100.00;100347.97;5261825;28;20029;-71
2021/12/25 03:18:23;;;;;;;22.52;17.83;;;;;;;3.72;100.00;100359.09;5277880;28;20111;-70
2021/12/25 03:20:58;;;;;;;19.30;17.10;;;;;;;3.67;100.00;100358.19;5278795;28;20158;-69
2021/12/25 03:23:32;;;;;;;21.65;18.17;;;;;;;3.61;100.00;100356.41;5279450;28;20549;-71
2021/12/25 03:26:05;;;;;;;23.15;17.98;;;;;;;3.52;100.00;100365.75;5278955;28;20055;-69
2021/12/25 03:28:40;;;;;;;23.63;18.67;;;;;;;3.45;100.00;100370.84;5271937;28;20032;-72
2021/12/25 03:31:19;;;;;;;23.58;17.70;;;;;;;3.41;100.00;100375.97;5267398;28;20078;-70
2021/12/25 03:33:54;;;;;;;23.13;18.40;;;;;;;3.36;100.00;100369.91;5264868;28;20499;-71
2021/12/25 03:36:25;;;;;;;26.83;19.23;;;;;;;3.28;100.00;100374.97;5278043;28;20035;-73
2021/12/25 03:38:57;;;;;;;27.63;20.97;;;;;;;3.25;100.00;100382.66;5277525;28;20517;-70
2021/12/25 03:41:28;;;;;;;25.67;20.23;;;;;;;3.22;100.00;100374.91;5271616;28;20028;-71
2021/12/25 03:44:00;;;;;;;24.47;18.87;;;;;;;3.23;100.00;100372.34;5273859;28;20032;-70
2021/12/25 03:46:32;;;;;;;26.02;18.73;;;;;;;3.20;100.00;100380.03;5271554;28;20024;-71
2021/12/25 03:49:15;;;;;;;25.10;18.53;;;;;;;3.17;100.00;100368.84;5262977;28;20780;-70
2021/12/25 03:57:42;;;;;;;22.10;18.00;;;;;;;3.03;100.00;100387.59;5256713;28;20160;-70
2021/12/25 04:00:15;;;;;;;21.95;17.35;;;;;;;2.97;100.00;100384.09;5256540;28;20048;-70
2021/12/25 04:02:54;;;;;;;22.20;18.15;;;;;;;2.89;100.00;100394.28;5273207;28;20028;-72
2021/12/25 04:05:30;;;;;;;23.00;18.55;;;;;;;2.79;100.00;100384.72;5266710;28;20036;-69
2021/12/25 04:10:40;;;;;;;20.10;17.90;;;;;;;2.71;100.00;100395.78;5260204;28;20068;-71
2021/12/25 04:13:14;;;;;;;21.42;16.65;;;;;;;2.68;100.00;100397.47;5257016;28;20174;-71
2021/12/25 04:15:46;;;;;;;24.33;19.40;;;;;;;2.70;100.00;100403.47;5257166;28;20030;-70
2021/12/25 04:18:20;;;;;;;22.47;18.03;;;;;;;2.70;100.00;100403.47;5256232;28;20542;-70
2021/12/25 04:20:51;;;;;;;23.02;18.30;;;;;;;2.67;100.00;100404.31;5273642;28;20571;-71
2021/12/25 04:23:26;;;;;;;22.10;17.67;;;;;;;2.69;100.00;100399.19;5276584;28;20059;-71
2021/12/25 04:26:00;;;;;;;21.75;18.17;;;;;;;2.69;100.00;100406.91;5276422;28;20063;-70
2021/12/25 04:28:41;;;;;;;21.33;19.02;;;;;;;2.65;100.00;100410.28;5276872;28;20028;-70
2021/12/25 05:04:31;;;;;;;23.90;19.77;;;;;;;1.84;100.00;100454.47;5287393;28;20036;-72
2021/12/25 05:07:06;;;;;;;22.95;20.45;;;;;;;1.78;100.00;100446.66;5282790;28;20047;-70
2021/12/25 05:09:37;;;;;;;22.20;19.77;;;;;;;1.66;100.00;100449.00;5287141;28;20184;-71
2021/12/25 05:12:09;;;;;;;22.97;20.50;;;;;;;1.62;100.00;100464.34;5260314;28;20150;-70
2021/12/25 05:14:40;;;;;;;21.33;18.83;;;;;;;1.55;100.00;100462.53;5262896;28;20120;-70
2021/12/25 05:17:13;;;;;;;22.53;19.90;;;;;;;1.51;100.00;100465.00;5255874;28;20033;-71
2021/12/25 05:19:44;;;;;;;24.80;20.83;;;;;;;1.41;100.00;100463.97;5257060;28;20484;-69
2021/12/25 05:22:17;;;;;;;23.10;19.97;;;;;;;1.47;100.00;100470.94;5254997;28;20044;-70
2021/12/25 05:24:49;;;;;;;23.98;19.95;;;;;;;1.36;100.00;100468.16;5269960;28;20064;-70
2021/12/25 05:27:20;;;;;;;25.73;20.17;;;;;;;1.36;100.00;100469.00;5258607;28;20099;-73
2021/12/25 05:29:52;;;;;;;23.00;18.90;;;;;;;1.31;100.00;100470.63;5255065;28;20366;-71
2021/12/25 05:32:23;;;;;;;24.67;21.10;;;;;;;1.24;100.00;100479.03;5264966;28;20083;-73
2021/12/25 05:34:54;;;;;;;23.37;20.20;;;;;;;1.17;100.00;100484.88;5275572;28;20465;-72
2021/12/25 05:37:26;;;;;;;24.70;21.23;;;;;;;1.13;100.00;100483.06;5274354;28;20046;-71
2021/12/25 05:39:57;;;;;;;25.90;20.57;;;;;;;1.03;100.00;100480.34;5266939;28;20522;-71
2021/12/25 05:42:28;;;;;;;22.67;20.00;;;;;;;1.00;100.00;100480.28;5274353;28;20474;-70
2021/12/25 05:45:00;;;;;;;24.90;20.80;;;;;;;1.04;100.00;100484.63;5274327;28;20025;-71
2021/12/25 05:47:31;;;;;;;21.90;18.80;;;;;;;0.96;100.00;100491.28;5271141;28;20040;-71
2021/12/25 05:50:03;;;;;;;25.10;20.10;;;;;;;0.97;100.00;100489.59;5273450;28;20040;-70
2021/12/25 05:52:34;;;;;;;26.30;21.03;;;;;;;0.91;100.00;100485.19;5267748;28;20029;-72
2021/12/25 05:55:06;;;;;;;27.47;21.97;;;;;;;0.84;100.00;100486.78;5261286;28;20028;-71
2021/12/25 05:57:37;;;;;;;24.97;20.33;;;;;;;0.87;100.00;100488.50;5267992;28;20052;-70
2021/12/25 06:00:10;;;;;;;24.60;20.27;;;;;;;0.79;100.00;100493.50;5275268;28;20024;-70
2021/12/25 06:02:42;;;;;;;23.95;19.33;;;;;;;0.87;100.00;100493.66;5257751;28;20032;-68
2021/12/25 06:05:14;;;;;;;24.23;20.02;;;;;;;0.81;100.00;100502.09;5272392;28;20116;-70
2021/12/25 06:07:45;;;;;;;22.83;19.23;;;;;;;0.75;100.00;100503.66;5258153;28;20170;-69
2021/12/25 06:10:17;;;;;;;22.80;19.70;;;;;;;0.81;100.00;100503.81;5257924;28;20471;-70
2021/12/25 06:12:49;;;;;;;24.03;20.40;;;;;;;0.80;100.00;100508.03;5264290;28;20054;-72
2021/12/25 06:15:21;;;;;;;25.42;20.30;;;;;;;0.80;100.00;100509.75;5257587;28;20029;-72
2021/12/25 06:17:52;;;;;;;23.83;20.10;;;;;;;0.78;100.00;100503.72;5260072;28;20043;-69
2021/12/25 06:20:24;;;;;;;21.93;19.53;;;;;;;0.67;100.00;100508.59;5275802;28;20391;-72
2021/12/25 06:22:55;;;;;;;23.00;19.90;;;;;;;0.65;100.00;100511.13;5271957;28;20029;-75
2021/12/25 06:25:27;;;;;;;21.57;19.10;;;;;;;0.62;100.00;100516.19;5254670;28;20032;-70
2021/12/25 06:27:58;;;;;;;25.07;20.57;;;;;;;0.60;100.00;100520.44;5271417;28;20389;-71
2021/12/25 06:30:30;;;;;;;21.40;19.10;;;;;;;0.60;100.00;100522.13;5257977;28;20053;-72
2021/12/25 06:33:01;;;;;;;21.17;17.80;;;;;;;0.54;100.00;100520.28;5262034;28;20044;-72
2021/12/25 06:35:33;;;;;;;24.87;18.53;;;;;;;0.53;100.00;100527.13;5278975;28;20027;-71
2021/12/25 06:38:04;;;;;;;21.37;18.83;;;;;;;0.52;100.00;100519.38;5276525;28;20476;-72
2021/12/25 06:40:35;;;;;;;21.93;18.90;;;;;;;0.54;100.00;100523.69;5278415;28;20414;-70
2021/12/25 06:43:07;;;;;;;21.57;17.10;;;;;;;0.52;100.00;100525.38;5262287;28;20028;-70
2021/12/25 06:45:38;;;;;;;19.87;17.43;;;;;;;0.49;100.00;100524.44;5277405;28;20035;-71
2021/12/25 06:48:09;;;;;;;21.53;17.47;;;;;;;0.50;100.00;100531.28;5277158;28;20024;-70
2021/12/25 06:50:41;;;;;;;19.60;17.40;;;;;;;0.45;100.00;100527.75;5271503;28;20044;-68
2021/12/25 06:53:12;;;;;;;19.53;16.77;;;;;;;0.43;100.00;100525.16;5267270;28;20032;-73
2021/12/25 06:55:43;;;;;;;20.97;16.90;;;;;;;0.48;100.00;100531.28;5266695;28;20020;-70
2021/12/25 06:58:15;;;;;;;17.90;16.00;;;;;;;0.42;100.00;100540.50;5278671;28;20029;-69
2021/12/25 07:00:48;;;;;;;20.55;16.40;;;;;;;0.39;100.00;100540.41;5277688;28;20113;-71
2021/12/25 07:03:19;;;;;;;21.83;16.52;;;;;;;0.40;100.00;100543.00;5276710;28;20028;-71
2021/12/25 07:05:50;;;;;;;18.50;16.20;;;;;;;0.35;100.00;100547.16;5278425;28;20120;-70
2021/12/25 07:08:22;;;;;;;19.20;16.60;;;;;;;0.35;100.00;100554.84;5278193;28;20064;-73
2021/12/25 07:10:53;;;;;;;20.60;18.03;;;;;;;0.36;100.00;100554.03;5278208;28;20059;-71
2021/12/25 07:13:25;;;;;;;19.30;17.03;;;;;;;0.35;100.00;100550.63;5278660;28;20108;-68
2021/12/25 07:15:56;;;;;;;21.43;16.77;;;;;;;0.35;100.00;100554.84;5277447;28;20028;-73
2021/12/25 07:18:27;;;;;;;21.23;18.03;;;;;;;0.34;100.00;100560.84;5278137;28;20039;-70
2021/12/25 07:20:59;;;;;;;19.07;15.73;;;;;;;0.33;100.00;100564.22;5277643;28;20409;-73
2021/12/25 07:23:31;;;;;;;20.60;16.33;;;;;;;0.22;100.00;100553.69;5277565;28;20341;-72
2021/12/25 07:26:03;;;;;;;24.60;17.17;;;;;;;0.15;100.00;100559.50;5277839;28;20052;-72
2021/12/25 07:28:35;;;;;;;23.63;16.95;;;;;;;0.12;100.00;100572.22;5278039;28;20496;-70
2021/12/25 07:31:08;;;;;;;18.37;15.80;;;;;;;0.10;100.00;100579.03;5277039;28;20074;-69
2021/12/25 07:33:40;;;;;;;17.17;15.35;;;;;;;0.09;100.00;100582.41;5277538;28;20039;-68
2021/12/25 07:36:13;;;;;;;20.25;15.55;;;;;;;0.05;100.00;100580.56;5290757;28;20064;-72
2021/12/25 07:38:44;;;;;;;23.38;15.77;;;;;;;0.02;100.00;100583.03;5274238;28;20082;-72
2021/12/25 07:41:15;;;;;;;22.50;16.63;;;;;;;0.00;100.00;100583.03;5278148;28;20020;-70
2021/12/25 07:43:47;;;;;;;16.37;14.20;;;;;;;-0.07;100.00;100584.53;5278044;28;20041;-70
2021/12/25 07:46:19;;;;;;;18.27;14.40;;;;;;;-0.03;100.00;100588.06;5273088;28;20021;-73
2021/12/25 07:48:50;;;;;;;18.35;14.95;;;;;;;-0.01;100.00;100587.28;5274304;28;20020;-71
2021/12/25 07:51:22;;;;;;;20.73;14.03;;;;;;;-0.03;100.00;100586.38;5277059;28;20056;-70
2021/12/25 07:53:53;;;;;;;17.07;13.40;;;;;;;-0.10;100.00;100578.47;5277215;28;20055;-72
2021/12/25 07:56:26;;;;;;;21.70;14.83;;;;;;;-0.09;100.00;100591.31;5277808;28;20027;-70
2021/12/25 07:58:58;;;;;;;15.77;12.88;;;;;;;-0.10;100.00;100589.56;5264708;28;20033;-69
2021/12/25 08:01:31;;;;;;;15.60;13.30;;;;;;;-0.02;100.00;100592.34;5265019;28;20047;-70
2021/12/25 08:04:04;;;;;;;20.70;14.90;;;;;;;-0.09;100.00;100596.44;5276774;28;20452;-70
2021/12/25 08:06:35;;;;;;;19.27;13.98;;;;;;;-0.12;100.00;100598.06;5277086;28;20420;-72
2021/12/25 08:09:07;;;;;;;14.93;12.97;;;;;;;-0.15;100.00;100596.28;5279351;28;20125;-72
2021/12/25 08:11:38;;;;;;;17.10;13.33;;;;;;;-0.13;100.00;100599.78;5277063;28;20497;-70
2021/12/25 08:14:09;;;;;;;17.17;13.00;;;;;;;-0.12;100.00;100605.75;5277081;28;20025;-71
2021/12/25 08:16:41;;;;;;;14.27;12.70;;;;;;;-0.12;100.00;100621.13;5275713;28;20048;-70
2021/12/25 08:19:12;;;;;;;17.07;12.27;;;;;;;-0.11;100.00;100620.28;5276499;28;20103;-72
2021/12/25 08:21:43;;;;;;;14.67;11.77;;;;;;;-0.14;100.00;100620.22;5276804;28;20032;-72
2021/12/25 08:24:16;;;;;;;16.57;12.23;;;;;;;-0.20;100.00;100623.47;5275900;28;20028;-72
2021/12/25 08:26:49;;;;;;;12.95;11.43;;;;;;;-0.18;100.00;100624.38;5275713;28;20433;-70
2021/12/25 08:29:21;;;;;;;12.55;10.55;;;;;;;-0.20;100.00;100624.31;5270914;28;20089;-71
2021/12/25 08:31:52;;;;;;;13.10;11.10;;;;;;;-0.21;100.00;100631.97;5275938;28;20051;-73
2021/12/25 08:34:23;;;;;;;13.73;12.03;;;;;;;-0.22;100.00;100622.56;5274037;28;20020;-73
2021/12/25 08:36:55;;;;;;;14.90;11.40;;;;;;;-0.20;100.00;100633.72;5274957;28;20024;-73
2021/12/25 08:39:26;;;;;;;13.63;11.10;;;;;;;-0.19;100.00;100636.31;5274497;28;20032;-70
2021/12/25 08:42:02;;;;;;;13.07;11.33;;;;;;;-0.15;100.00;100633.84;5271411;28;20165;-73
2021/12/25 08:44:39;;;;;;;15.85;11.93;;;;;;;-0.09;100.00;100642.56;5274827;28;20065;-72
2021/12/25 08:47:12;;;;;;;14.32;11.88;;;;;;;-0.06;100.00;100641.81;5272042;28;20086;-72
2021/12/25 08:49:43;;;;;;;15.25;11.82;;;;;;;-0.09;99.60;100646.84;5274642;28;20024;-72
2021/12/25 08:52:16;;;;;;;13.67;11.87;;;;;;;-0.07;99.98;100647.72;5274557;28;20482;-70
2021/12/25 08:54:51;;;;;;;16.38;11.23;;;;;;;-0.05;99.86;100662.34;5275182;28;20412;-71
2021/12/25 08:57:22;;;;;;;13.18;10.90;;;;;;;-0.08;99.65;100653.69;5275605;28;20028;-70
2021/12/25 08:59:56;;;;;;;13.10;11.80;;;;;;;-0.09;99.25;100660.50;5274750;28;20451;-71
2021/12/25 09:02:27;;;;;;;15.48;10.98;;;;;;;-0.14;99.48;100661.22;5275217;28;20097;-79
2021/12/25 09:04:59;;;;;;;14.37;10.60;;;;;;;-0.13;99.53;100652.69;5275456;28;20025;-71
2021/12/25 09:07:30;;;;;;;16.53;10.43;;;;;;;-0.16;98.63;100662.84;5258665;28;20043;-72
2021/12/25 09:10:02;;;;;;;12.13;10.40;;;;;;;-0.14;98.74;100664.63;5265180;28;20032;-71
2021/12/25 09:12:39;;;;;;;11.82;10.30;;;;;;;-0.21;98.42;100666.16;5272236;28;20510;-71
2021/12/25 09:15:12;;;;;;;14.80;11.38;;;;;;;-0.19;98.39;100666.19;5273424;28;20380;-73
2021/12/25 09:17:43;;;;;;;;;;;;;;;-0.06;98.43;100673.41;5269700;28;20120;-70
2021/12/25 09:20:16;;;;;;;14.10;11.13;;;;;;;-0.19;98.14;100672.19;5275335;28;20057;-68
2021/12/25 09:22:49;;;;;;;12.55;11.30;;;;;;;-0.28;98.64;100674.47;5271437;28;20122;-70
2021/12/25 09:25:20;;;;;;;;;;;;;;;-0.11;98.20;100674.09;5273905;28;20691;-71
2021/12/25 09:27:52;;;;;;;13.52;9.85;;;;;;;-0.29;96.33;100669.31;5275374;28;19916;-71
2021/12/25 09:30:25;;;;;;;12.77;10.43;;;;;;;-0.22;97.14;100668.66;5274934;28;20055;-68
2021/12/25 09:32:56;;;;;;;13.25;11.27;;;;;;;-0.16;97.53;100668.84;5262360;28;20085;-71
2021/12/25 09:35:28;;;;;;;50.47;31.23;;;;;;;-0.14;97.38;100663.78;5253953;28;20028;-70
2021/12/25 09:37:59;;;;;;;23.00;15.07;;;;;;;-0.26;96.36;100664.28;5252841;28;20037;-70
2021/12/25 09:40:31;;;;;;;13.73;11.03;;;;;;;-0.16;96.90;100675.66;5268229;28;20066;-69
2021/12/25 09:43:02;;;;;;;29.00;18.43;;;;;;;-0.24;96.31;100663.50;5275044;28;20028;-70
2021/12/25 09:45:34;;;;;;;15.07;11.20;;;;;;;-0.21;96.36;100678.06;5264354;28;20029;-69
2021/12/25 09:48:05;;;;;;;11.67;9.43;;;;;;;-0.20;96.45;100683.25;5270328;28;20029;-73
2021/12/25 09:50:37;;;;;;;12.00;10.17;;;;;;;-0.21;96.40;100678.06;5273117;28;20028;-72
2021/12/25 09:53:12;;;;;;;10.97;9.30;;;;;;;-0.13;95.20;100686.00;5255353;28;20341;-72
2021/12/25 09:55:43;;;;;;;11.35;10.02;;;;;;;-0.11;94.98;100692.03;5255945;28;20028;-71
2021/12/25 09:58:15;;;;;;;11.13;9.07;;;;;;;-0.14;94.79;100692.81;5254013;28;20040;-71
2021/12/25 10:00:48;;;;;;;9.97;8.63;;;;;;;-0.22;93.88;100704.53;5254007;28;20419;-71
2021/12/25 10:03:20;;;;;;;11.30;9.50;;;;;;;-0.25;94.65;100705.31;5257912;28;20108;-71
2021/12/25 10:05:53;;;;;;;10.10;8.10;;;;;;;-0.25;93.81;100715.56;5257938;28;20105;-69
2021/12/25 10:08:25;;;;;;;12.05;9.35;;;;;;;-0.22;94.19;100717.34;5264232;28;20024;-71
2021/12/25 10:11:00;;;;;;;;;;;;;;;-0.12;93.88;100718.47;5278965;28;20035;-70
2021/12/25 10:13:36;;;;;;;11.52;9.60;;;;;;;-0.23;94.43;100719.00;5278571;28;19978;-70
2021/12/25 10:16:30;;;;;;;12.05;9.35;;;;;;;-0.14;94.93;100722.72;5277840;28;20024;-70
2021/12/25 10:19:14;;;;;;;10.55;9.45;;;;;;;-0.14;94.34;100720.13;5278749;28;20043;-70
2021/12/25 10:21:46;;;;;;;11.80;9.88;;;;;;;-0.15;93.76;100719.25;5266825;28;20108;-71
2021/12/25 10:24:27;;;;;;;13.97;10.07;;;;;;;-0.09;93.99;100723.72;5258889;28;20160;-70
2021/12/25 10:27:10;;;;;;;10.18;8.43;;;;;;;-0.06;93.92;100716.97;5257606;28;20037;-68
2021/12/25 10:29:42;;;;;;;16.02;10.00;;;;;;;-0.02;93.89;100723.03;5257488;28;20051;-70
2021/12/25 10:32:20;;;;;;;13.20;9.60;;;;;;;0.00;93.52;100718.84;5257567;28;20029;-69
2021/12/25 10:34:54;;;;;;;10.35;8.80;;;;;;;0.03;93.68;100713.78;5262200;28;20024;-70
2021/12/25 10:37:25;;;;;;;10.15;8.68;;;;;;;0.08;92.63;100712.25;5283970;28;20021;-70
2021/12/25 10:39:57;;;;;;;10.63;8.83;;;;;;;-0.04;92.20;100715.31;5273822;28;20025;-73
2021/12/25 10:42:33;;;;;;;10.47;8.50;;;;;;;-0.07;92.28;100712.66;5276188;28;20032;-69
2021/12/25 10:45:13;;;;;;;15.43;12.18;;;;;;;-0.29;92.52;100715.41;5272024;28;20040;-74
2021/12/25 10:47:44;;;;;;;11.75;9.20;;;;;;;-0.39;92.35;100715.16;5271752;28;20024;-71
2021/12/25 10:50:18;;;;;;;10.70;8.50;;;;;;;-0.30;92.61;100713.69;5277788;28;20029;-70
2021/12/25 10:52:49;;;;;;;17.17;12.82;;;;;;;-0.37;92.62;100710.94;5274860;28;20024;-70
2021/12/25 10:55:23;;;;;;;9.43;7.57;;;;;;;-0.39;92.23;100699.78;5272697;28;20035;-73
2021/12/25 10:57:57;;;;;;;16.60;12.93;;;;;;;-0.39;92.84;100711.69;5278003;28;20033;-69
2021/12/25 11:00:33;;;;;;;11.65;9.15;;;;;;;-0.36;92.62;100711.78;5276769;28;20505;-69
2021/12/25 11:03:07;;;;;;;13.23;8.85;;;;;;;-0.32;93.20;100710.19;5275752;28;20029;-71
2021/12/25 11:05:44;;;;;;;9.73;7.10;;;;;;;-0.35;92.24;100716.09;5269600;28;20089;-70
2021/12/25 11:08:18;;;;;;;9.55;6.50;;;;;;;-0.29;91.00;100706.06;5256978;28;20021;-72
2021/12/25 11:11:00;;;;;;;10.55;6.35;;;;;;;-0.44;90.07;100697.88;5263574;28;20037;-70
2021/12/25 11:13:41;;;;;;;8.35;6.40;;;;;;;-0.39;90.83;100704.00;5276498;28;20037;-70
2021/12/25 11:16:21;;;;;;;9.48;7.57;;;;;;;-0.43;91.82;100713.31;5276212;28;20066;-70
2021/12/25 11:19:10;;;;;;;10.35;6.18;;;;;;;-0.42;91.48;100717.63;5268379;28;20044;-71
2021/12/25 11:21:44;;;;;;;10.13;6.40;;;;;;;-0.37;91.16;100725.44;5277060;28;20037;-71
2021/12/25 11:24:23;;;;;;;10.43;6.32;;;;;;;-0.32;92.37;100728.13;5268920;28;20110;-69
2021/12/25 11:27:06;;;;;;;7.53;6.00;;;;;;;-0.35;91.60;100721.22;5270079;28;20040;-71
2021/12/25 11:29:42;;;;;;;7.32;6.35;;;;;;;-0.30;91.82;100718.81;5276264;28;20499;-71
2021/12/25 11:32:13;;;;;;;8.35;6.22;;;;;;;-0.29;92.17;100720.53;5272739;28;20068;-70
2021/12/25 11:34:44;;;;;;;7.87;5.97;;;;;;;-0.38;92.56;100705.75;5276386;28;20029;-70
2021/12/25 11:37:17;;;;;;;10.17;4.73;;;;;;;-0.38;91.81;100701.50;5273294;28;20043;-69
2021/12/25 11:39:52;;;;;;;6.63;4.93;;;;;;;-0.47;90.33;100700.34;5262276;28;20400;-68
2021/12/25 11:42:25;;;;;;;6.10;4.28;;;;;;;-0.50;90.22;100692.56;5260785;28;20035;-68
2021/12/25 11:45:11;;;;;;;9.02;5.32;;;;;;;-0.54;90.71;100690.75;5266975;28;20021;-69
2021/12/25 11:47:44;;;;;;;6.75;4.43;;;;;;;-0.57;90.97;100697.50;5272348;28;20376;-72
2021/12/25 11:50:41;;;;;;;7.25;4.32;;;;;;;-0.45;91.17;100694.47;5276090;28;20040;-68
2021/12/25 11:53:25;;;;;;;9.65;4.85;;;;;;;-0.29;91.30;100710.28;5285466;28;20040;-68
2021/12/25 11:58:52;;;;;;;5.22;4.07;;;;;;;-0.44;90.22;100714.13;5276344;28;20075;-70
2021/12/25 12:01:35;;;;;;;6.93;3.80;;;;;;;-0.34;90.02;100705.00;5275652;28;20024;-72
2021/12/25 12:04:09;;;;;;;6.15;3.78;;;;;;;-0.20;90.65;100695.19;5273645;28;20062;-72
2021/12/25 12:06:43;;;;;;;5.80;3.72;;;;;;;-0.03;89.93;100700.81;5276712;28;20028;-69
2021/12/25 12:09:32;;;;;;;6.65;3.83;;;;;;;0.16;90.31;100703.09;5276244;28;20101;-70
2021/12/25 12:12:03;;;;;;;6.05;3.63;;;;;;;0.23;87.99;100703.25;5276592;28;20471;-72
2021/12/25 12:14:35;;;;;;;10.17;3.93;;;;;;;0.28;87.93;100704.25;5276227;28;20097;-71
2021/12/25 12:17:26;;;;;;;6.13;3.13;;;;;;;0.37;86.71;100704.47;5276421;28;20429;-71
2021/12/25 12:20:02;;;;;;;4.90;3.10;;;;;;;0.48;87.26;100705.66;5276402;28;20166;-71
2021/12/25 12:27:59;;;;;;;7.80;3.40;;;;;;;0.74;85.19;100682.38;5275734;28;20105;-69
2021/12/25 12:30:30;;;;;;;6.72;3.90;;;;;;;0.59;84.47;100684.56;5274827;28;20044;-74
2021/12/25 12:33:23;;;;;;;3.93;3.13;;;;;;;0.62;84.78;100675.25;5278389;28;20024;-68
2021/12/25 12:35:56;;;;;;;3.30;2.67;;;;;;;0.69;85.17;100674.59;5275966;28;20153;-68
2021/12/25 12:38:40;;;;;;;;;;;;;;;0.89;85.77;100669.94;5287152;28;20491;-70
2021/12/25 12:41:15;;;;;;;5.38;2.78;;;;;;;0.78;84.88;100660.25;5281790;28;20519;-67
2021/12/25 12:43:55;;;;;;;5.60;2.90;;;;;;;0.77;84.33;100661.06;5273525;28;20509;-67
2021/12/25 12:46:48;;;;;;;5.60;2.67;;;;;;;0.76;85.07;100661.88;5267688;28;20422;-69
2021/12/25 12:49:22;;;;;;;4.60;2.72;;;;;;;0.75;86.19;100662.72;5267999;28;20379;-68
2021/12/25 12:52:14;;;;;;;4.00;2.80;;;;;;;0.70;84.95;100676.28;5261504;28;20056;-70